Terminal Aerodrome Forecast
Issued by NWS

Home | Current Version | Previous Version | Text Only | Print | Product List | Glossary On
Versions: 1 2 3 4 5 6 7 8 9 10 11 12 13 14 15 16 17
000
FTUS41 KBTV 291737
TAFRUT
TAF
KRUT 291737Z 2918/3018 28011G19KT P6SM BKN050
     FM292100 29014G23KT P6SM SCT100
     FM300000 31009G19KT P6SM FEW200
     FM300600 34006KT P6SM FEW200
     FM301700 00000KT P6SM VCSH BKN070=

USA.gov is the U.S. government's official web portal to all federal, state and local government web resources and services.